createdAt,value
2023-01-15T00:01:29.861Z,8.02
2023-01-15T00:03:58.177Z,7.95
2023-01-15T00:06:26.662Z,7.86
2023-01-15T00:08:53.662Z,7.90
2023-01-15T00:11:21.351Z,7.89
2023-01-15T00:13:48.506Z,7.79
2023-01-15T00:16:18.357Z,7.74
2023-01-15T00:18:50.625Z,7.77
2023-01-15T00:21:17.872Z,7.78
2023-01-15T00:24:03.046Z,7.74
2023-01-15T00:26:49.761Z,7.63
2023-01-15T00:29:17.152Z,7.59
2023-01-15T00:31:50.849Z,7.59
2023-01-15T00:34:17.408Z,7.52
2023-01-15T00:36:43.855Z,7.53
2023-01-15T00:39:10.397Z,7.53
2023-01-15T00:41:36.863Z,7.61
2023-01-15T00:44:03.470Z,7.64
2023-01-15T00:46:30.007Z,7.68
2023-01-15T00:48:56.711Z,7.65
2023-01-15T00:51:23.947Z,7.65
2023-01-15T00:53:50.524Z,7.63
2023-01-15T00:56:17.004Z,7.61
2023-01-15T00:58:44.124Z,7.59
2023-01-15T01:01:10.725Z,7.58
2023-01-15T01:03:37.330Z,7.59
2023-01-15T01:06:04.837Z,7.60
2023-01-15T01:08:31.569Z,7.62
2023-01-15T01:11:10.049Z,7.63
2023-01-15T01:13:37.929Z,7.65
2023-01-15T01:16:05.668Z,7.62
2023-01-15T01:18:32.154Z,7.64
2023-01-15T01:20:58.619Z,7.61
2023-01-15T01:23:25.120Z,7.63
2023-01-15T01:25:51.701Z,7.56
2023-01-15T01:28:18.295Z,7.53
2023-01-15T01:30:44.777Z,7.60
2023-01-15T01:33:11.274Z,7.61
2023-01-15T01:35:37.744Z,7.60
2023-01-15T01:38:04.398Z,7.54
2023-01-15T01:40:30.921Z,7.56
2023-01-15T01:42:57.405Z,7.55
2023-01-15T01:45:33.299Z,7.57
2023-01-15T01:48:05.440Z,7.53
2023-01-15T01:50:34.454Z,7.54
2023-01-15T01:53:08.641Z,7.53
2023-01-15T01:55:36.807Z,7.57
2023-01-15T01:58:07.829Z,7.56
2023-01-15T02:00:35.954Z,7.61
2023-01-15T02:03:07.516Z,7.53
2023-01-15T02:05:37.769Z,7.56
2023-01-15T02:08:06.021Z,7.54
2023-01-15T02:10:33.323Z,7.55
2023-01-15T02:13:17.095Z,7.52
2023-01-15T02:15:48.103Z,7.52
2023-01-15T02:18:33.512Z,7.46
2023-01-15T02:21:07.924Z,7.51
2023-01-15T02:23:56.340Z,7.49
2023-01-15T02:26:49.057Z,7.46
2023-01-15T02:29:19.993Z,7.49
2023-01-15T02:31:51.642Z,7.45
2023-01-15T02:34:26.709Z,7.44
2023-01-15T02:37:08.673Z,7.39
2023-01-15T02:39:40.174Z,7.40
2023-01-15T02:42:09.966Z,7.43
2023-01-15T02:44:42.294Z,7.41
2023-01-15T02:47:11.386Z,7.42
2023-01-15T02:49:40.709Z,7.43
2023-01-15T02:52:13.625Z,7.49
2023-01-15T02:54:45.341Z,7.44
2023-01-15T02:57:13.726Z,7.48
2023-01-15T02:59:46.316Z,7.49
2023-01-15T03:02:25.288Z,7.49
2023-01-15T03:05:07.688Z,7.47
2023-01-15T03:07:44.133Z,7.45
2023-01-15T03:10:11.412Z,7.46
2023-01-15T03:13:05.577Z,7.43
2023-01-15T03:16:21.033Z,7.38
2023-01-15T03:18:58.984Z,7.37
2023-01-15T03:21:36.709Z,7.40
2023-01-15T03:24:06.620Z,7.37
2023-01-15T03:26:33.150Z,7.40
2023-01-15T03:29:02.460Z,7.34
2023-01-15T03:31:33.190Z,7.37
2023-01-15T03:33:59.686Z,7.31
2023-01-15T03:36:26.210Z,7.31
2023-01-15T03:38:52.964Z,7.33
2023-01-15T03:41:29.769Z,7.34
2023-01-15T03:44:32.291Z,7.31
2023-01-15T03:47:08.961Z,7.34
2023-01-15T03:49:56.092Z,7.33
2023-01-15T03:52:37.508Z,7.33
2023-01-15T03:55:15.770Z,7.31
2023-01-15T03:58:02.419Z,7.36
2023-01-15T04:00:43.505Z,7.31
2023-01-15T04:03:12.589Z,7.35
2023-01-15T04:05:40.978Z,7.33
2023-01-15T04:08:08.965Z,7.35
2023-01-15T04:10:35.606Z,7.33
2023-01-15T04:13:02.107Z,7.33
2023-01-15T04:15:29.596Z,7.29
2023-01-15T04:17:56.114Z,7.33
2023-01-15T04:20:23.024Z,7.30
2023-01-15T04:22:49.480Z,7.28
2023-01-15T04:25:16.271Z,7.26
2023-01-15T04:27:42.725Z,7.27
2023-01-15T04:30:09.923Z,7.33
2023-01-15T04:32:36.396Z,7.33
2023-01-15T04:35:02.919Z,7.33
2023-01-15T04:37:29.479Z,7.29
2023-01-15T04:39:55.945Z,7.30
2023-01-15T04:42:40.775Z,7.29
2023-01-15T04:45:07.815Z,7.34
2023-01-15T04:47:34.359Z,7.29
2023-01-15T04:50:00.903Z,7.30
2023-01-15T04:52:27.393Z,7.27
2023-01-15T04:54:55.332Z,7.25
2023-01-15T04:57:22.053Z,7.28
2023-01-15T04:59:48.608Z,7.32
2023-01-15T05:02:15.685Z,7.36
2023-01-15T05:04:42.333Z,7.36
2023-01-15T05:07:09.864Z,7.35
2023-01-15T05:09:36.651Z,7.33
2023-01-15T05:12:03.456Z,7.34
2023-01-15T05:14:30.129Z,7.33
2023-01-15T05:16:56.622Z,7.29
2023-01-15T05:19:23.119Z,7.29
2023-01-15T05:21:49.625Z,7.28
2023-01-15T05:24:17.649Z,7.24
2023-01-15T05:26:44.648Z,7.23
2023-01-15T05:29:11.702Z,7.24
2023-01-15T05:31:39.451Z,7.23
2023-01-15T05:34:05.999Z,7.28
2023-01-15T05:36:32.735Z,7.28
2023-01-15T05:39:02.090Z,7.25
2023-01-15T05:41:48.884Z,7.28
2023-01-15T05:44:34.211Z,7.26
2023-01-15T05:47:05.796Z,7.27
2023-01-15T05:49:32.516Z,7.24
2023-01-15T05:52:01.024Z,7.25
2023-01-15T05:54:34.050Z,7.24
2023-01-15T05:57:01.600Z,7.25
2023-01-15T05:59:29.903Z,7.23
2023-01-15T06:01:57.364Z,7.22
2023-01-15T06:04:25.291Z,7.24
2023-01-15T06:06:53.873Z,7.23
2023-01-15T06:09:23.150Z,7.22
2023-01-15T06:11:50.168Z,7.20
2023-01-15T06:14:17.187Z,7.20
2023-01-15T06:16:46.436Z,7.20
2023-01-15T06:19:14.552Z,7.23
2023-01-15T06:21:41.590Z,7.20
2023-01-15T06:24:08.788Z,7.21
2023-01-15T06:26:35.701Z,7.22
2023-01-15T06:29:02.174Z,7.23
2023-01-15T06:31:28.824Z,7.26
2023-01-15T06:33:56.112Z,7.25
2023-01-15T06:36:25.136Z,7.26
2023-01-15T06:38:51.853Z,7.27
2023-01-15T06:41:41.645Z,7.27
2023-01-15T06:44:32.211Z,7.25
2023-01-15T06:47:17.529Z,7.24
2023-01-15T06:49:44.038Z,7.20
2023-01-15T06:52:10.552Z,7.21
2023-01-15T06:54:37.143Z,7.21
2023-01-15T06:57:04.023Z,7.18
2023-01-15T06:59:31.149Z,7.17
2023-01-15T07:01:57.890Z,7.17
2023-01-15T07:04:24.551Z,7.16
2023-01-15T07:06:51.045Z,7.14
2023-01-15T07:09:17.564Z,7.12
2023-01-15T07:11:50.133Z,7.13
2023-01-15T07:14:22.858Z,7.12
2023-01-15T07:16:50.721Z,7.15
2023-01-15T07:19:18.063Z,7.09
2023-01-15T07:21:44.748Z,7.09
2023-01-15T07:24:12.026Z,7.04
2023-01-15T07:26:39.132Z,7.05
2023-01-15T07:29:05.875Z,7.05
2023-01-15T07:31:32.735Z,7.06
2023-01-15T07:33:59.228Z,7.05
2023-01-15T07:36:26.286Z,7.01
2023-01-15T07:38:52.990Z,6.98
2023-01-15T07:41:37.904Z,6.96
2023-01-15T07:44:23.384Z,6.98
2023-01-15T07:47:08.867Z,7.00
2023-01-15T07:49:48.191Z,6.98
2023-01-15T07:52:19.382Z,7.04
2023-01-15T07:54:47.265Z,7.14
2023-01-15T07:57:16.170Z,7.15
2023-01-15T07:59:43.076Z,7.32
2023-01-15T08:02:09.608Z,7.45
2023-01-15T08:04:36.941Z,7.49
2023-01-15T08:07:05.037Z,7.52
2023-01-15T08:09:31.756Z,7.47
2023-01-15T08:12:20.707Z,7.42
2023-01-15T08:15:06.201Z,7.40
2023-01-15T08:17:36.904Z,7.40
2023-01-15T08:20:06.058Z,7.43
2023-01-15T08:22:32.717Z,7.44
2023-01-15T08:24:59.267Z,7.49
2023-01-15T08:27:25.876Z,7.38
2023-01-15T08:29:53.208Z,7.40
2023-01-15T08:32:19.825Z,7.34
2023-01-15T08:34:46.345Z,7.34
2023-01-15T08:37:12.879Z,7.33
2023-01-15T08:39:39.349Z,7.33
2023-01-15T08:42:05.955Z,7.27
2023-01-15T08:44:33.700Z,7.23
2023-01-15T08:47:00.316Z,7.33
2023-01-15T08:49:26.821Z,7.24
2023-01-15T08:51:53.451Z,7.22
2023-01-15T08:54:21.941Z,7.25
2023-01-15T08:56:49.833Z,7.22
2023-01-15T08:59:16.768Z,7.22
2023-01-15T09:01:44.719Z,7.16
2023-01-15T09:04:20.022Z,7.07
2023-01-15T09:06:48.358Z,6.96
2023-01-15T09:09:15.579Z,6.97
2023-01-15T09:11:44.299Z,6.89
2023-01-15T09:14:57.911Z,6.92
2023-01-15T09:17:00.444Z,6.96
2023-01-15T09:19:27.114Z,6.88
2023-01-15T09:21:53.647Z,6.90
2023-01-15T09:24:20.133Z,6.82
2023-01-15T09:26:47.679Z,6.96
2023-01-15T09:29:14.192Z,6.93
2023-01-15T09:31:40.718Z,6.99
2023-01-15T09:34:07.195Z,6.97
2023-01-15T09:36:35.428Z,7.07
2023-01-15T09:39:03.716Z,7.00
2023-01-15T09:41:57.944Z,6.95
2023-01-15T09:44:39.467Z,7.00
2023-01-15T09:47:14.823Z,7.04
2023-01-15T09:50:04.600Z,7.08
2023-01-15T09:52:44.255Z,7.10
2023-01-15T09:55:20.273Z,7.15
2023-01-15T09:57:51.554Z,7.20
2023-01-15T10:00:26.720Z,7.12
2023-01-15T10:02:59.216Z,7.07
2023-01-15T10:05:36.507Z,7.19
2023-01-15T10:08:11.617Z,7.22
2023-01-15T10:10:52.023Z,7.27
2023-01-15T10:13:21.553Z,7.29
2023-01-15T10:15:48.284Z,7.38
2023-01-15T10:18:19.401Z,7.42
2023-01-15T10:21:08.216Z,7.36
2023-01-15T10:24:04.765Z,7.35
2023-01-15T10:26:47.671Z,7.30
2023-01-15T10:29:17.004Z,7.36
2023-01-15T10:31:57.871Z,7.45
2023-01-15T10:34:39.636Z,7.48
2023-01-15T10:37:27.390Z,7.48
2023-01-15T10:40:14.940Z,7.49
2023-01-15T10:42:55.310Z,7.52
2023-01-15T10:45:29.911Z,7.53
2023-01-15T10:48:19.879Z,7.59
2023-01-15T10:50:47.786Z,7.65
2023-01-15T10:53:41.905Z,7.72
2023-01-15T10:56:15.641Z,7.74
2023-01-15T10:59:18.781Z,7.69
2023-01-15T11:01:46.022Z,7.69
2023-01-15T11:04:13.870Z,7.68
2023-01-15T11:06:41.131Z,7.70
2023-01-15T11:09:19.347Z,7.64
2023-01-15T11:12:00.181Z,7.59
2023-01-15T11:14:58.357Z,7.62
2023-01-15T11:17:48.592Z,7.63
2023-01-15T11:20:29.031Z,7.63
2023-01-15T11:22:57.689Z,7.59
2023-01-15T11:25:32.284Z,7.57
2023-01-15T11:28:02.817Z,7.62
2023-01-15T11:30:37.785Z,7.67
2023-01-15T11:33:06.447Z,7.65
2023-01-15T11:35:34.378Z,7.69
2023-01-15T11:38:03.642Z,7.75
2023-01-15T11:40:30.392Z,7.74
2023-01-15T11:43:15.525Z,7.68
2023-01-15T11:46:09.239Z,7.68
2023-01-15T11:49:03.418Z,7.67
2023-01-15T11:51:35.938Z,7.67
2023-01-15T11:54:05.032Z,7.67
2023-01-15T11:56:34.941Z,7.58
2023-01-15T11:59:04.240Z,7.57
2023-01-15T12:01:34.965Z,7.55
2023-01-15T12:04:05.628Z,7.57
2023-01-15T12:06:37.563Z,7.62
2023-01-15T12:09:37.732Z,7.61
2023-01-15T12:12:18.795Z,7.61
2023-01-15T12:14:54.779Z,7.58
2023-01-15T12:17:27.164Z,7.53
2023-01-15T12:20:24.640Z,7.52
2023-01-15T12:23:09.106Z,7.57
2023-01-15T12:26:03.418Z,7.50
2023-01-15T12:28:35.267Z,7.53
2023-01-15T12:31:01.784Z,7.46
2023-01-15T12:33:43.304Z,7.51
2023-01-15T12:36:22.827Z,7.61
2023-01-15T12:38:59.610Z,7.64
2023-01-15T12:41:50.291Z,7.69
2023-01-15T12:44:39.766Z,7.63
2023-01-15T12:47:14.314Z,7.62
2023-01-15T12:49:49.595Z,7.61
2023-01-15T12:52:33.729Z,7.61
2023-01-15T12:55:00.997Z,7.58
2023-01-15T12:57:36.657Z,7.53
2023-01-15T13:00:15.757Z,7.53
2023-01-15T13:03:15.458Z,7.53
2023-01-15T13:05:48.406Z,7.58
2023-01-15T13:08:26.318Z,7.55
2023-01-15T13:10:53.256Z,7.48
2023-01-15T13:13:24.557Z,7.49
2023-01-15T13:16:06.382Z,7.48
2023-01-15T13:18:48.063Z,7.43
2023-01-15T13:21:17.225Z,7.45
2023-01-15T13:23:49.433Z,7.45
2023-01-15T13:26:54.933Z,7.45
2023-01-15T13:29:42.761Z,7.43
2023-01-15T13:32:18.435Z,7.45
2023-01-15T13:34:57.132Z,7.50
2023-01-15T13:37:30.847Z,7.50
2023-01-15T13:40:23.801Z,7.47
2023-01-15T13:42:51.395Z,7.45
2023-01-15T13:45:28.019Z,7.47
2023-01-15T13:48:02.237Z,7.47
2023-01-15T13:50:34.934Z,7.49
2023-01-15T13:53:16.466Z,7.51
2023-01-15T13:55:51.598Z,7.50
2023-01-15T13:58:56.544Z,7.52
2023-01-15T14:01:32.057Z,7.52
2023-01-15T14:04:05.020Z,7.53
2023-01-15T14:06:46.607Z,7.56
2023-01-15T14:09:34.880Z,7.61
2023-01-15T14:12:07.621Z,7.62
2023-01-15T14:14:52.110Z,7.58
2023-01-15T14:17:29.548Z,7.58
2023-01-15T14:20:17.544Z,7.58
2023-01-15T14:23:21.214Z,7.61
2023-01-15T14:25:58.291Z,7.63
2023-01-15T14:29:15.983Z,7.66
2023-01-15T14:31:51.616Z,7.61
2023-01-15T14:34:27.104Z,7.63
2023-01-15T14:37:01.087Z,7.59
2023-01-15T14:39:27.557Z,7.56
2023-01-15T14:42:26.888Z,7.58
2023-01-15T14:44:59.995Z,7.56
2023-01-15T14:47:32.247Z,7.57
2023-01-15T14:50:02.637Z,7.53
2023-01-15T14:52:29.555Z,7.52
2023-01-15T14:54:58.633Z,7.51
2023-01-15T14:57:25.640Z,7.52
2023-01-15T15:00:00.321Z,7.51
2023-01-15T15:02:53.254Z,7.54
2023-01-15T15:05:22.560Z,7.52
2023-01-15T15:07:53.192Z,7.50
2023-01-15T15:10:31.311Z,7.49
2023-01-15T15:13:29.773Z,7.46
2023-01-15T15:16:19.037Z,7.47
2023-01-15T15:18:55.081Z,7.48
2023-01-15T15:21:27.124Z,7.46
2023-01-15T15:24:02.539Z,7.48
2023-01-15T15:26:31.648Z,7.49
2023-01-15T15:29:04.884Z,7.50
2023-01-15T15:31:37.174Z,7.43
2023-01-15T15:34:05.956Z,7.43
2023-01-15T15:36:37.636Z,7.39
2023-01-15T15:39:19.014Z,7.42
2023-01-15T15:42:08.179Z,7.40
2023-01-15T15:45:07.726Z,7.40
2023-01-15T15:47:57.354Z,7.40
2023-01-15T15:50:31.358Z,7.38
2023-01-15T15:52:58.645Z,7.35
2023-01-15T15:55:32.389Z,7.33
2023-01-15T15:58:02.675Z,7.35
2023-01-15T16:00:35.244Z,7.33
2023-01-15T16:03:08.184Z,7.29
2023-01-15T16:05:34.944Z,7.28
2023-01-15T16:08:18.880Z,7.28
2023-01-15T16:10:50.803Z,7.26
2023-01-15T16:13:42.815Z,7.27
2023-01-15T16:16:11.008Z,7.26
2023-01-15T16:18:41.197Z,7.26
2023-01-15T16:21:09.410Z,7.25
2023-01-15T16:23:35.960Z,7.20
2023-01-15T16:26:15.006Z,7.19
2023-01-15T16:28:47.080Z,7.17
2023-01-15T16:31:15.762Z,7.15
2023-01-15T16:33:42.320Z,7.17
2023-01-15T16:36:09.247Z,7.16
2023-01-15T16:38:42.029Z,7.16
2023-01-15T16:41:27.791Z,7.20
2023-01-15T16:44:02.010Z,7.20
2023-01-15T16:46:31.917Z,7.21
2023-01-15T16:49:36.740Z,7.23
2023-01-15T16:52:23.775Z,7.23
2023-01-15T16:54:50.286Z,7.23
2023-01-15T16:57:33.640Z,7.21
2023-01-15T17:00:02.910Z,7.19
2023-01-15T17:02:41.486Z,7.17
2023-01-15T17:05:17.360Z,7.20
2023-01-15T17:07:48.544Z,7.19
2023-01-15T17:10:33.487Z,7.19
2023-01-15T17:13:00.136Z,7.15
2023-01-15T17:15:26.538Z,7.17
2023-01-15T17:17:55.327Z,7.20
2023-01-15T17:20:27.644Z,7.16
2023-01-15T17:22:55.339Z,7.14
2023-01-15T17:25:21.887Z,7.15
2023-01-15T17:27:48.366Z,7.14
2023-01-15T17:30:15.576Z,7.17
2023-01-15T17:32:42.628Z,7.17
2023-01-15T17:35:22.617Z,7.15
2023-01-15T17:37:49.568Z,7.15
2023-01-15T17:40:16.642Z,7.15
2023-01-15T17:42:43.217Z,7.15
2023-01-15T17:45:19.154Z,7.16
2023-01-15T17:47:45.965Z,7.16
2023-01-15T17:50:14.532Z,7.19
2023-01-15T17:52:42.703Z,7.22
2023-01-15T17:55:30.691Z,7.20
2023-01-15T17:58:15.491Z,7.20
2023-01-15T18:01:00.940Z,7.20
2023-01-15T18:03:47.007Z,7.23
2023-01-15T18:06:15.323Z,7.20
2023-01-15T18:08:45.823Z,7.16
2023-01-15T18:11:12.352Z,7.13
2023-01-15T18:13:41.952Z,7.13
2023-01-15T18:16:09.613Z,7.15
2023-01-15T18:18:36.157Z,7.13
2023-01-15T18:21:03.456Z,7.08
2023-01-15T18:23:32.958Z,7.12
2023-01-15T18:26:03.711Z,7.11
2023-01-15T18:28:32.341Z,7.13
2023-01-15T18:30:58.821Z,7.12
2023-01-15T18:33:25.429Z,7.10
2023-01-15T18:36:02.340Z,7.06
2023-01-15T18:38:28.891Z,7.04
2023-01-15T18:40:55.394Z,7.03
2023-01-15T18:43:40.327Z,7.00
2023-01-15T18:46:25.599Z,7.01
2023-01-15T18:48:52.089Z,6.97
2023-01-15T18:51:18.574Z,6.95
2023-01-15T18:53:48.883Z,6.96
2023-01-15T18:56:35.352Z,6.97
2023-01-15T18:59:01.833Z,6.95
2023-01-15T19:01:28.387Z,6.89
2023-01-15T19:03:55.951Z,6.88
2023-01-15T19:06:22.431Z,6.86
2023-01-15T19:08:49.011Z,6.83
2023-01-15T19:11:15.474Z,6.80
2023-01-15T19:13:42.036Z,6.77
2023-01-15T19:16:27.588Z,6.73
2023-01-15T19:18:54.163Z,6.73
2023-01-15T19:21:21.804Z,6.71
2023-01-15T19:23:48.412Z,6.71
2023-01-15T19:26:15.059Z,6.74
2023-01-15T19:28:41.573Z,6.69
2023-01-15T19:31:27.991Z,6.70
2023-01-15T19:34:31.107Z,6.71
2023-01-15T19:36:45.969Z,6.73
2023-01-15T19:39:12.646Z,6.74
2023-01-15T19:41:57.764Z,6.79
2023-01-15T19:44:43.273Z,6.78
2023-01-15T19:47:32.346Z,7.05
2023-01-15T19:50:17.243Z,7.13
2023-01-15T19:52:44.790Z,7.03
2023-01-15T19:55:12.224Z,7.00
2023-01-15T19:57:38.986Z,6.95
2023-01-15T20:00:11.524Z,6.90
2023-01-15T20:02:38.295Z,6.85
2023-01-15T20:05:06.363Z,6.85
2023-01-15T20:07:32.924Z,6.80
2023-01-15T20:09:59.465Z,6.77
2023-01-15T20:12:44.957Z,6.76
2023-01-15T20:15:11.548Z,6.74
2023-01-15T20:17:38.029Z,6.74
2023-01-15T20:20:04.906Z,6.78
2023-01-15T20:22:32.189Z,6.76
2023-01-15T20:24:58.653Z,6.75
2023-01-15T20:27:25.205Z,6.77
2023-01-15T20:29:55.168Z,6.74
2023-01-15T20:32:21.647Z,6.73
2023-01-15T20:34:48.475Z,6.76
2023-01-15T20:37:15.046Z,6.74
2023-01-15T20:39:41.596Z,6.70
2023-01-15T20:42:28.491Z,6.70
2023-01-15T20:44:55.137Z,6.69
2023-01-15T20:47:42.900Z,6.68
2023-01-15T20:50:11.752Z,6.64
2023-01-15T20:52:39.240Z,6.67
2023-01-15T20:55:06.190Z,6.67
2023-01-15T20:57:38.465Z,6.67
2023-01-15T21:00:08.010Z,6.70
2023-01-15T21:02:34.962Z,6.66
2023-01-15T21:05:01.629Z,6.66
2023-01-15T21:07:28.163Z,6.66
2023-01-15T21:09:54.711Z,6.70
2023-01-15T21:12:21.221Z,6.68
2023-01-15T21:14:47.747Z,6.70
2023-01-15T21:17:14.264Z,6.72
2023-01-15T21:19:40.800Z,6.71
2023-01-15T21:22:07.335Z,6.74
2023-01-15T21:24:34.216Z,6.74
2023-01-15T21:27:00.813Z,6.75
2023-01-15T21:29:27.403Z,6.78
2023-01-15T21:31:54.060Z,6.78
2023-01-15T21:34:20.822Z,6.79
2023-01-15T21:36:47.387Z,6.81
2023-01-15T21:39:17.976Z,6.77
2023-01-15T21:42:03.380Z,6.74
2023-01-15T21:44:32.543Z,6.70
2023-01-15T21:47:07.600Z,6.74
2023-01-15T21:49:34.562Z,6.74
2023-01-15T21:52:02.308Z,6.73
2023-01-15T21:54:29.104Z,6.71
2023-01-15T21:56:56.109Z,6.72
2023-01-15T21:59:23.684Z,6.75
2023-01-15T22:01:53.460Z,6.74
2023-01-15T22:04:20.189Z,6.71
2023-01-15T22:06:46.867Z,6.70
2023-01-15T22:09:13.322Z,6.67
2023-01-15T22:11:45.940Z,6.63
2023-01-15T22:14:33.617Z,6.56
2023-01-15T22:17:02.374Z,6.56
2023-01-15T22:19:30.949Z,6.54
2023-01-15T22:22:08.944Z,6.61
2023-01-15T22:24:37.038Z,6.55
2023-01-15T22:27:06.594Z,6.42
2023-01-15T22:29:40.506Z,6.38
2023-01-15T22:32:09.670Z,6.36
2023-01-15T22:34:36.185Z,6.33
2023-01-15T22:37:03.079Z,6.32
2023-01-15T22:39:29.779Z,6.37
2023-01-15T22:42:15.012Z,6.34
2023-01-15T22:44:44.115Z,6.36
2023-01-15T22:47:11.741Z,6.31
2023-01-15T22:49:38.258Z,6.32
2023-01-15T22:52:05.184Z,6.31
2023-01-15T22:54:31.713Z,6.32
2023-01-15T22:56:58.431Z,6.29
2023-01-15T22:59:24.988Z,6.30
2023-01-15T23:01:51.592Z,6.33
2023-01-15T23:04:23.951Z,6.34
2023-01-15T23:06:51.835Z,6.33
2023-01-15T23:09:20.039Z,6.33
2023-01-15T23:11:46.723Z,6.32
2023-01-15T23:14:15.767Z,6.31
2023-01-15T23:16:43.161Z,6.31
2023-01-15T23:19:10.139Z,6.30
2023-01-15T23:21:39.119Z,6.33
2023-01-15T23:24:06.007Z,6.36
2023-01-15T23:26:33.813Z,6.35
2023-01-15T23:29:00.786Z,6.31
2023-01-15T23:31:28.267Z,6.26
2023-01-15T23:33:55.076Z,6.19
2023-01-15T23:36:22.280Z,6.09
2023-01-15T23:38:48.861Z,6.09
2023-01-15T23:41:18.268Z,6.04
2023-01-15T23:44:03.819Z,6.02
2023-01-15T23:46:35.756Z,6.06
2023-01-15T23:49:05.493Z,6.06
2023-01-15T23:51:32.810Z,6.03
2023-01-15T23:54:00.167Z,6.04
2023-01-15T23:56:27.193Z,6.07
2023-01-15T23:58:54.371Z,6.09
